sensor_id;sensor_type;location;lat;lon;timestamp;P1;durP1;ratioP1;P2;durP2;ratioP2
21472;SDS011;10898;48.072;11.682;2023-04-29T00:01:55;0.95;;;0.77;;
21472;SDS011;10898;48.072;11.682;2023-04-29T00:03:59;1.05;;;1.00;;
21472;SDS011;10898;48.072;11.682;2023-04-29T00:08:04;0.68;;;0.68;;
21472;SDS011;10898;48.072;11.682;2023-04-29T00:10:06;0.80;;;0.80;;
21472;SDS011;10898;48.072;11.682;2023-04-29T00:12:09;0.70;;;0.70;;
21472;SDS011;10898;48.072;11.682;2023-04-29T00:14:11;0.80;;;0.80;;
21472;SDS011;10898;48.072;11.682;2023-04-29T00:16:13;3.08;;;0.75;;
21472;SDS011;10898;48.072;11.682;2023-04-29T00:18:16;0.63;;;0.63;;
21472;SDS011;10898;48.072;11.682;2023-04-29T00:20:18;1.65;;;0.80;;
21472;SDS011;10898;48.072;11.682;2023-04-29T00:22:20;0.80;;;0.80;;
21472;SDS011;10898;48.072;11.682;2023-04-29T00:24:23;1.05;;;1.00;;
21472;SDS011;10898;48.072;11.682;2023-04-29T00:26:25;1.70;;;1.00;;
21472;SDS011;10898;48.072;11.682;2023-04-29T00:28:27;0.70;;;0.70;;
21472;SDS011;10898;48.072;11.682;2023-04-29T00:30:30;0.60;;;0.60;;
21472;SDS011;10898;48.072;11.682;2023-04-29T00:32:35;0.80;;;0.80;;
21472;SDS011;10898;48.072;11.682;2023-04-29T00:34:37;0.88;;;0.88;;
21472;SDS011;10898;48.072;11.682;2023-04-29T00:36:40;1.20;;;0.77;;
21472;SDS011;10898;48.072;11.682;2023-04-29T00:38:42;0.80;;;0.80;;
21472;SDS011;10898;48.072;11.682;2023-04-29T00:40:44;0.80;;;0.80;;
21472;SDS011;10898;48.072;11.682;2023-04-29T00:42:46;1.30;;;0.90;;
21472;SDS011;10898;48.072;11.682;2023-04-29T00:44:49;1.95;;;0.82;;
21472;SDS011;10898;48.072;11.682;2023-04-29T00:46:51;0.60;;;0.60;;
21472;SDS011;10898;48.072;11.682;2023-04-29T00:48:53;1.00;;;1.00;;
21472;SDS011;10898;48.072;11.682;2023-04-29T00:50:55;1.23;;;1.13;;
21472;SDS011;10898;48.072;11.682;2023-04-29T00:52:58;3.40;;;1.17;;
21472;SDS011;10898;48.072;11.682;2023-04-29T00:57:03;0.90;;;0.90;;
21472;SDS011;10898;48.072;11.682;2023-04-29T00:59:06;1.00;;;0.90;;
21472;SDS011;10898;48.072;11.682;2023-04-29T01:01:10;2.25;;;1.00;;
21472;SDS011;10898;48.072;11.682;2023-04-29T01:03:13;1.02;;;0.98;;
21472;SDS011;10898;48.072;11.682;2023-04-29T01:05:15;1.77;;;0.90;;
21472;SDS011;10898;48.072;11.682;2023-04-29T01:11:26;0.88;;;0.88;;
21472;SDS011;10898;48.072;11.682;2023-04-29T01:13:45;1.17;;;0.90;;
21472;SDS011;10898;48.072;11.682;2023-04-29T01:15:57;0.77;;;0.77;;
21472;SDS011;10898;48.072;11.682;2023-04-29T01:20:05;0.80;;;0.80;;
21472;SDS011;10898;48.072;11.682;2023-04-29T01:22:08;2.35;;;0.88;;
21472;SDS011;10898;48.072;11.682;2023-04-29T01:24:10;1.08;;;0.98;;
21472;SDS011;10898;48.072;11.682;2023-04-29T01:26:12;1.00;;;1.00;;
21472;SDS011;10898;48.072;11.682;2023-04-29T01:32:32;1.17;;;1.17;;
21472;SDS011;10898;48.072;11.682;2023-04-29T01:34:51;1.00;;;1.00;;
21472;SDS011;10898;48.072;11.682;2023-04-29T01:36:59;1.20;;;1.10;;
21472;SDS011;10898;48.072;11.682;2023-04-29T01:39:15;1.17;;;1.10;;
21472;SDS011;10898;48.072;11.682;2023-04-29T01:42:08;2.03;;;1.30;;
21472;SDS011;10898;48.072;11.682;2023-04-29T01:43:45;2.00;;;1.30;;
21472;SDS011;10898;48.072;11.682;2023-04-29T01:45:48;1.60;;;1.50;;
21472;SDS011;10898;48.072;11.682;2023-04-29T01:47:51;1.80;;;1.70;;
21472;SDS011;10898;48.072;11.682;2023-04-29T01:49:56;3.08;;;2.10;;
21472;SDS011;10898;48.072;11.682;2023-04-29T01:51:58;1.70;;;1.60;;
21472;SDS011;10898;48.072;11.682;2023-04-29T01:54:00;2.85;;;1.60;;
21472;SDS011;10898;48.072;11.682;2023-04-29T01:56:02;2.10;;;2.00;;
21472;SDS011;10898;48.072;11.682;2023-04-29T01:58:05;2.00;;;1.90;;
21472;SDS011;10898;48.072;11.682;2023-04-29T02:00:07;2.30;;;2.10;;
21472;SDS011;10898;48.072;11.682;2023-04-29T02:02:09;1.98;;;1.88;;
21472;SDS011;10898;48.072;11.682;2023-04-29T02:04:11;2.47;;;2.20;;
21472;SDS011;10898;48.072;11.682;2023-04-29T02:06:14;3.63;;;3.25;;
21472;SDS011;10898;48.072;11.682;2023-04-29T02:08:16;2.53;;;2.05;;
21472;SDS011;10898;48.072;11.682;2023-04-29T02:10:18;2.08;;;1.83;;
21472;SDS011;10898;48.072;11.682;2023-04-29T02:12:21;2.65;;;2.20;;
21472;SDS011;10898;48.072;11.682;2023-04-29T02:14:23;3.25;;;2.33;;
21472;SDS011;10898;48.072;11.682;2023-04-29T02:16:25;3.10;;;2.42;;
21472;SDS011;10898;48.072;11.682;2023-04-29T02:18:27;2.55;;;2.35;;
21472;SDS011;10898;48.072;11.682;2023-04-29T02:20:30;2.53;;;2.33;;
21472;SDS011;10898;48.072;11.682;2023-04-29T02:22:32;2.10;;;2.00;;
21472;SDS011;10898;48.072;11.682;2023-04-29T02:24:34;2.50;;;2.30;;
21472;SDS011;10898;48.072;11.682;2023-04-29T02:26:36;2.47;;;2.28;;
21472;SDS011;10898;48.072;11.682;2023-04-29T02:28:39;2.50;;;2.30;;
21472;SDS011;10898;48.072;11.682;2023-04-29T02:30:41;3.00;;;2.28;;
21472;SDS011;10898;48.072;11.682;2023-04-29T02:32:43;2.80;;;2.50;;
21472;SDS011;10898;48.072;11.682;2023-04-29T02:34:45;2.40;;;2.20;;
21472;SDS011;10898;48.072;11.682;2023-04-29T02:36:47;2.20;;;2.10;;
21472;SDS011;10898;48.072;11.682;2023-04-29T02:38:50;2.25;;;2.08;;
21472;SDS011;10898;48.072;11.682;2023-04-29T02:40:54;2.20;;;2.00;;
21472;SDS011;10898;48.072;11.682;2023-04-29T02:42:56;1.60;;;1.50;;
21472;SDS011;10898;48.072;11.682;2023-04-29T02:44:58;1.90;;;1.70;;
21472;SDS011;10898;48.072;11.682;2023-04-29T02:49:03;2.72;;;2.00;;
21472;SDS011;10898;48.072;11.682;2023-04-29T02:51:06;3.45;;;1.98;;
21472;SDS011;10898;48.072;11.682;2023-04-29T02:53:08;1.60;;;1.50;;
21472;SDS011;10898;48.072;11.682;2023-04-29T02:55:10;2.03;;;1.92;;
21472;SDS011;10898;48.072;11.682;2023-04-29T02:57:12;3.42;;;2.25;;
21472;SDS011;10898;48.072;11.682;2023-04-29T02:59:15;2.45;;;2.25;;
21472;SDS011;10898;48.072;11.682;2023-04-29T03:01:17;2.38;;;2.17;;
21472;SDS011;10898;48.072;11.682;2023-04-29T03:03:19;3.38;;;2.13;;
21472;SDS011;10898;48.072;11.682;2023-04-29T03:05:21;2.58;;;2.38;;
21472;SDS011;10898;48.072;11.682;2023-04-29T03:07:23;2.42;;;2.22;;
21472;SDS011;10898;48.072;11.682;2023-04-29T03:09:26;2.30;;;2.10;;
21472;SDS011;10898;48.072;11.682;2023-04-29T03:11:28;2.88;;;2.10;;
21472;SDS011;10898;48.072;11.682;2023-04-29T03:13:30;2.10;;;1.90;;
21472;SDS011;10898;48.072;11.682;2023-04-29T03:15:33;2.85;;;2.15;;
21472;SDS011;10898;48.072;11.682;2023-04-29T03:17:35;2.55;;;2.10;;
21472;SDS011;10898;48.072;11.682;2023-04-29T03:19:37;2.70;;;1.90;;
21472;SDS011;10898;48.072;11.682;2023-04-29T03:21:39;2.83;;;1.90;;
21472;SDS011;10898;48.072;11.682;2023-04-29T03:23:41;2.33;;;2.13;;
21472;SDS011;10898;48.072;11.682;2023-04-29T03:25:45;2.42;;;2.05;;
21472;SDS011;10898;48.072;11.682;2023-04-29T03:27:47;2.10;;;1.90;;
21472;SDS011;10898;48.072;11.682;2023-04-29T03:29:49;1.95;;;1.73;;
21472;SDS011;10898;48.072;11.682;2023-04-29T03:31:52;1.98;;;1.77;;
21472;SDS011;10898;48.072;11.682;2023-04-29T03:33:54;2.20;;;2.00;;
21472;SDS011;10898;48.072;11.682;2023-04-29T03:35:56;2.47;;;2.28;;
21472;SDS011;10898;48.072;11.682;2023-04-29T03:37:58;2.63;;;1.90;;
21472;SDS011;10898;48.072;11.682;2023-04-29T03:40:01;2.78;;;1.70;;
21472;SDS011;10898;48.072;11.682;2023-04-29T03:42:03;2.85;;;2.65;;
21472;SDS011;10898;48.072;11.682;2023-04-29T03:44:05;2.10;;;1.90;;
21472;SDS011;10898;48.072;11.682;2023-04-29T03:46:07;2.20;;;2.00;;
21472;SDS011;10898;48.072;11.682;2023-04-29T03:48:09;2.58;;;2.38;;
21472;SDS011;10898;48.072;11.682;2023-04-29T03:50:12;2.45;;;2.05;;
21472;SDS011;10898;48.072;11.682;2023-04-29T03:52:14;2.08;;;1.90;;
21472;SDS011;10898;48.072;11.682;2023-04-29T03:54:17;2.22;;;1.77;;
21472;SDS011;10898;48.072;11.682;2023-04-29T03:56:19;3.38;;;1.80;;
21472;SDS011;10898;48.072;11.682;2023-04-29T03:58:23;2.28;;;2.08;;
21472;SDS011;10898;48.072;11.682;2023-04-29T04:00:25;3.38;;;2.22;;
21472;SDS011;10898;48.072;11.682;2023-04-29T04:02:31;4.75;;;2.28;;
21472;SDS011;10898;48.072;11.682;2023-04-29T04:04:33;4.25;;;2.33;;
21472;SDS011;10898;48.072;11.682;2023-04-29T04:06:36;2.60;;;2.38;;
21472;SDS011;10898;48.072;11.682;2023-04-29T04:08:39;3.35;;;2.28;;
21472;SDS011;10898;48.072;11.682;2023-04-29T04:10:41;3.08;;;2.30;;
21472;SDS011;10898;48.072;11.682;2023-04-29T04:12:44;2.50;;;2.30;;
21472;SDS011;10898;48.072;11.682;2023-04-29T04:14:47;2.47;;;2.05;;
21472;SDS011;10898;48.072;11.682;2023-04-29T04:16:49;3.70;;;2.28;;
21472;SDS011;10898;48.072;11.682;2023-04-29T04:18:52;2.28;;;2.00;;
21472;SDS011;10898;48.072;11.682;2023-04-29T04:20:54;2.50;;;2.22;;
21472;SDS011;10898;48.072;11.682;2023-04-29T04:22:56;2.35;;;2.15;;
21472;SDS011;10898;48.072;11.682;2023-04-29T04:24:58;2.28;;;2.08;;
21472;SDS011;10898;48.072;11.682;2023-04-29T04:27:00;2.20;;;2.00;;
21472;SDS011;10898;48.072;11.682;2023-04-29T04:29:03;2.20;;;1.98;;
21472;SDS011;10898;48.072;11.682;2023-04-29T04:31:05;2.60;;;2.35;;
21472;SDS011;10898;48.072;11.682;2023-04-29T04:33:08;2.50;;;2.30;;
21472;SDS011;10898;48.072;11.682;2023-04-29T04:35:11;2.15;;;1.95;;
21472;SDS011;10898;48.072;11.682;2023-04-29T04:37:13;3.53;;;2.25;;
21472;SDS011;10898;48.072;11.682;2023-04-29T04:41:18;3.35;;;2.35;;
21472;SDS011;10898;48.072;11.682;2023-04-29T04:43:20;2.90;;;2.70;;
21472;SDS011;10898;48.072;11.682;2023-04-29T04:45:23;2.55;;;2.30;;
21472;SDS011;10898;48.072;11.682;2023-04-29T04:47:25;2.30;;;2.10;;
21472;SDS011;10898;48.072;11.682;2023-04-29T04:49:27;3.78;;;2.40;;
21472;SDS011;10898;48.072;11.682;2023-04-29T04:51:29;2.78;;;2.45;;
21472;SDS011;10898;48.072;11.682;2023-04-29T04:53:31;2.33;;;2.13;;
21472;SDS011;10898;48.072;11.682;2023-04-29T04:55:33;4.07;;;2.55;;
21472;SDS011;10898;48.072;11.682;2023-04-29T04:57:36;4.15;;;2.10;;
21472;SDS011;10898;48.072;11.682;2023-04-29T04:59:39;3.00;;;2.47;;
21472;SDS011;10898;48.072;11.682;2023-04-29T05:01:41;3.80;;;2.60;;
21472;SDS011;10898;48.072;11.682;2023-04-29T05:03:43;2.63;;;2.42;;
21472;SDS011;10898;48.072;11.682;2023-04-29T05:05:51;2.40;;;2.20;;
21472;SDS011;10898;48.072;11.682;2023-04-29T05:07:53;2.95;;;2.45;;
21472;SDS011;10898;48.072;11.682;2023-04-29T05:09:55;2.83;;;2.63;;
21472;SDS011;10898;48.072;11.682;2023-04-29T05:11:58;3.53;;;2.33;;
21472;SDS011;10898;48.072;11.682;2023-04-29T05:14:01;2.40;;;2.20;;
21472;SDS011;10898;48.072;11.682;2023-04-29T05:16:03;2.50;;;2.25;;
21472;SDS011;10898;48.072;11.682;2023-04-29T05:18:06;2.63;;;2.20;;
21472;SDS011;10898;48.072;11.682;2023-04-29T05:20:09;3.10;;;2.80;;
21472;SDS011;10898;48.072;11.682;2023-04-29T05:22:11;2.72;;;2.53;;
21472;SDS011;10898;48.072;11.682;2023-04-29T05:24:13;2.55;;;2.35;;
21472;SDS011;10898;48.072;11.682;2023-04-29T05:26:15;2.60;;;2.40;;
21472;SDS011;10898;48.072;11.682;2023-04-29T05:28:18;2.60;;;2.40;;
21472;SDS011;10898;48.072;11.682;2023-04-29T05:30:20;2.97;;;2.63;;
21472;SDS011;10898;48.072;11.682;2023-04-29T05:32:22;3.13;;;2.47;;
21472;SDS011;10898;48.072;11.682;2023-04-29T05:34:24;4.13;;;2.65;;
21472;SDS011;10898;48.072;11.682;2023-04-29T05:36:26;2.58;;;2.38;;
21472;SDS011;10898;48.072;11.682;2023-04-29T05:38:29;3.10;;;2.80;;
21472;SDS011;10898;48.072;11.682;2023-04-29T05:40:31;3.42;;;2.65;;
21472;SDS011;10898;48.072;11.682;2023-04-29T05:42:33;6.18;;;2.88;;
21472;SDS011;10898;48.072;11.682;2023-04-29T05:44:35;3.65;;;2.70;;
21472;SDS011;10898;48.072;11.682;2023-04-29T05:46:37;2.85;;;2.65;;
21472;SDS011;10898;48.072;11.682;2023-04-29T05:48:40;3.58;;;2.53;;
21472;SDS011;10898;48.072;11.682;2023-04-29T05:50:42;3.70;;;2.60;;
21472;SDS011;10898;48.072;11.682;2023-04-29T05:52:45;3.25;;;2.53;;
21472;SDS011;10898;48.072;11.682;2023-04-29T05:54:47;3.10;;;2.80;;
21472;SDS011;10898;48.072;11.682;2023-04-29T05:56:50;4.10;;;2.42;;
21472;SDS011;10898;48.072;11.682;2023-04-29T05:58:52;2.40;;;2.20;;
21472;SDS011;10898;48.072;11.682;2023-04-29T06:00:54;2.30;;;2.10;;
21472;SDS011;10898;48.072;11.682;2023-04-29T06:03:00;3.05;;;2.15;;
21472;SDS011;10898;48.072;11.682;2023-04-29T06:05:02;2.20;;;1.98;;
21472;SDS011;10898;48.072;11.682;2023-04-29T06:07:05;3.72;;;2.13;;
21472;SDS011;10898;48.072;11.682;2023-04-29T06:09:09;3.30;;;2.17;;
21472;SDS011;10898;48.072;11.682;2023-04-29T06:11:27;3.63;;;2.22;;
21472;SDS011;10898;48.072;11.682;2023-04-29T06:13:30;2.58;;;2.38;;
21472;SDS011;10898;48.072;11.682;2023-04-29T06:15:32;3.00;;;2.70;;
21472;SDS011;10898;48.072;11.682;2023-04-29T06:17:35;4.03;;;2.10;;
21472;SDS011;10898;48.072;11.682;2023-04-29T06:19:37;2.33;;;2.00;;
21472;SDS011;10898;48.072;11.682;2023-04-29T06:21:40;4.03;;;2.20;;
21472;SDS011;10898;48.072;11.682;2023-04-29T06:23:42;1.98;;;1.88;;
21472;SDS011;10898;48.072;11.682;2023-04-29T06:25:44;2.67;;;2.30;;
21472;SDS011;10898;48.072;11.682;2023-04-29T06:27:46;2.55;;;2.30;;
21472;SDS011;10898;48.072;11.682;2023-04-29T06:29:49;2.80;;;2.53;;
21472;SDS011;10898;48.072;11.682;2023-04-29T06:31:51;3.92;;;2.08;;
21472;SDS011;10898;48.072;11.682;2023-04-29T06:33:54;2.55;;;2.28;;
21472;SDS011;10898;48.072;11.682;2023-04-29T06:35:56;2.53;;;2.33;;
21472;SDS011;10898;48.072;11.682;2023-04-29T06:37:58;5.20;;;2.50;;
21472;SDS011;10898;48.072;11.682;2023-04-29T06:40:01;3.65;;;2.78;;
21472;SDS011;10898;48.072;11.682;2023-04-29T06:42:03;2.70;;;2.50;;
21472;SDS011;10898;48.072;11.682;2023-04-29T06:44:05;4.70;;;2.72;;
21472;SDS011;10898;48.072;11.682;2023-04-29T06:46:08;3.45;;;3.05;;
21472;SDS011;10898;48.072;11.682;2023-04-29T06:48:10;4.38;;;2.83;;
21472;SDS011;10898;48.072;11.682;2023-04-29T06:50:13;3.75;;;2.70;;
21472;SDS011;10898;48.072;11.682;2023-04-29T06:52:15;3.00;;;2.28;;
21472;SDS011;10898;48.072;11.682;2023-04-29T06:54:17;4.38;;;3.88;;
21472;SDS011;10898;48.072;11.682;2023-04-29T06:56:19;3.55;;;3.25;;
21472;SDS011;10898;48.072;11.682;2023-04-29T06:58:22;4.53;;;3.00;;
21472;SDS011;10898;48.072;11.682;2023-04-29T07:00:24;3.38;;;3.05;;
21472;SDS011;10898;48.072;11.682;2023-04-29T07:02:26;4.13;;;3.63;;
21472;SDS011;10898;48.072;11.682;2023-04-29T07:04:28;3.85;;;3.47;;
21472;SDS011;10898;48.072;11.682;2023-04-29T07:06:31;4.57;;;3.33;;
21472;SDS011;10898;48.072;11.682;2023-04-29T07:08:33;3.70;;;3.13;;
21472;SDS011;10898;48.072;11.682;2023-04-29T07:10:35;4.20;;;3.50;;
21472;SDS011;10898;48.072;11.682;2023-04-29T07:12:37;4.10;;;3.53;;
21472;SDS011;10898;48.072;11.682;2023-04-29T07:14:39;3.65;;;3.35;;
21472;SDS011;10898;48.072;11.682;2023-04-29T07:16:42;3.63;;;3.33;;
21472;SDS011;10898;48.072;11.682;2023-04-29T07:18:44;3.65;;;3.35;;
21472;SDS011;10898;48.072;11.682;2023-04-29T07:20:46;4.60;;;3.85;;
21472;SDS011;10898;48.072;11.682;2023-04-29T07:22:49;3.22;;;2.92;;
21472;SDS011;10898;48.072;11.682;2023-04-29T07:24:52;4.60;;;3.40;;
21472;SDS011;10898;48.072;11.682;2023-04-29T07:26:55;4.65;;;3.50;;
21472;SDS011;10898;48.072;11.682;2023-04-29T07:28:57;3.78;;;3.47;;
21472;SDS011;10898;48.072;11.682;2023-04-29T07:31:00;4.70;;;3.60;;
21472;SDS011;10898;48.072;11.682;2023-04-29T07:33:02;3.33;;;3.03;;
21472;SDS011;10898;48.072;11.682;2023-04-29T07:35:04;4.15;;;3.00;;
21472;SDS011;10898;48.072;11.682;2023-04-29T07:37:07;4.38;;;3.75;;
21472;SDS011;10898;48.072;11.682;2023-04-29T07:39:09;5.25;;;3.55;;
21472;SDS011;10898;48.072;11.682;2023-04-29T07:41:15;4.55;;;3.50;;
21472;SDS011;10898;48.072;11.682;2023-04-29T07:43:17;4.53;;;3.65;;
21472;SDS011;10898;48.072;11.682;2023-04-29T07:45:19;4.05;;;3.72;;
21472;SDS011;10898;48.072;11.682;2023-04-29T07:47:21;5.25;;;4.00;;
21472;SDS011;10898;48.072;11.682;2023-04-29T07:49:23;3.65;;;3.35;;
21472;SDS011;10898;48.072;11.682;2023-04-29T07:51:26;10.05;;;3.63;;
21472;SDS011;10898;48.072;11.682;2023-04-29T07:53:29;3.58;;;2.92;;
21472;SDS011;10898;48.072;11.682;2023-04-29T07:55:31;4.90;;;3.45;;
21472;SDS011;10898;48.072;11.682;2023-04-29T07:57:33;4.75;;;3.35;;
21472;SDS011;10898;48.072;11.682;2023-04-29T07:59:36;4.38;;;3.15;;
21472;SDS011;10898;48.072;11.682;2023-04-29T08:01:39;4.25;;;3.88;;
21472;SDS011;10898;48.072;11.682;2023-04-29T08:03:41;4.40;;;3.63;;
21472;SDS011;10898;48.072;11.682;2023-04-29T08:05:44;3.55;;;3.25;;
21472;SDS011;10898;48.072;11.682;2023-04-29T08:07:49;4.80;;;3.30;;
21472;SDS011;10898;48.072;11.682;2023-04-29T08:09:52;3.75;;;3.45;;
21472;SDS011;10898;48.072;11.682;2023-04-29T08:11:54;5.10;;;3.38;;
21472;SDS011;10898;48.072;11.682;2023-04-29T08:13:56;5.07;;;4.00;;
21472;SDS011;10898;48.072;11.682;2023-04-29T08:16:00;3.50;;;3.20;;
21472;SDS011;10898;48.072;11.682;2023-04-29T08:18:02;3.67;;;3.38;;
21472;SDS011;10898;48.072;11.682;2023-04-29T08:20:05;4.30;;;3.90;;
21472;SDS011;10898;48.072;11.682;2023-04-29T08:22:08;3.70;;;3.40;;
21472;SDS011;10898;48.072;11.682;2023-04-29T08:24:12;3.75;;;2.97;;
21472;SDS011;10898;48.072;11.682;2023-04-29T08:26:14;4.13;;;2.88;;
21472;SDS011;10898;48.072;11.682;2023-04-29T08:28:16;3.88;;;3.55;;
21472;SDS011;10898;48.072;11.682;2023-04-29T08:30:19;3.05;;;2.80;;
21472;SDS011;10898;48.072;11.682;2023-04-29T08:32:22;3.97;;;3.30;;
21472;SDS011;10898;48.072;11.682;2023-04-29T08:34:24;4.88;;;2.88;;
21472;SDS011;10898;48.072;11.682;2023-04-29T08:36:27;3.50;;;2.85;;
21472;SDS011;10898;48.072;11.682;2023-04-29T08:38:30;3.35;;;3.05;;
21472;SDS011;10898;48.072;11.682;2023-04-29T08:40:33;3.47;;;2.90;;
21472;SDS011;10898;48.072;11.682;2023-04-29T08:42:36;4.85;;;3.70;;
21472;SDS011;10898;48.072;11.682;2023-04-29T08:44:39;4.63;;;2.83;;
21472;SDS011;10898;48.072;11.682;2023-04-29T08:46:45;2.60;;;2.40;;
21472;SDS011;10898;48.072;11.682;2023-04-29T08:48:47;2.13;;;1.92;;
21472;SDS011;10898;48.072;11.682;2023-04-29T08:50:50;5.22;;;2.10;;
21472;SDS011;10898;48.072;11.682;2023-04-29T08:52:52;2.33;;;2.13;;
21472;SDS011;10898;48.072;11.682;2023-04-29T08:54:55;3.53;;;2.28;;
21472;SDS011;10898;48.072;11.682;2023-04-29T08:59:00;2.10;;;1.85;;
21472;SDS011;10898;48.072;11.682;2023-04-29T09:01:05;3.75;;;2.10;;
21472;SDS011;10898;48.072;11.682;2023-04-29T09:05:30;4.20;;;2.53;;
21472;SDS011;10898;48.072;11.682;2023-04-29T09:07:40;3.03;;;2.83;;
21472;SDS011;10898;48.072;11.682;2023-04-29T09:09:42;3.15;;;2.83;;
21472;SDS011;10898;48.072;11.682;2023-04-29T09:11:45;3.10;;;2.80;;
21472;SDS011;10898;48.072;11.682;2023-04-29T09:13:47;2.63;;;2.42;;
21472;SDS011;10898;48.072;11.682;2023-04-29T09:15:49;1.83;;;1.73;;
21472;SDS011;10898;48.072;11.682;2023-04-29T09:17:52;1.70;;;1.60;;
21472;SDS011;10898;48.072;11.682;2023-04-29T09:19:54;2.15;;;1.55;;
21472;SDS011;10898;48.072;11.682;2023-04-29T09:21:57;1.42;;;1.33;;
21472;SDS011;10898;48.072;11.682;2023-04-29T09:24:00;1.83;;;1.73;;
21472;SDS011;10898;48.072;11.682;2023-04-29T09:26:03;1.30;;;1.20;;
21472;SDS011;10898;48.072;11.682;2023-04-29T09:28:13;1.75;;;1.65;;
21472;SDS011;10898;48.072;11.682;2023-04-29T09:30:16;1.73;;;1.63;;
21472;SDS011;10898;48.072;11.682;2023-04-29T09:32:19;1.90;;;1.77;;
21472;SDS011;10898;48.072;11.682;2023-04-29T09:34:32;1.80;;;1.30;;
21472;SDS011;10898;48.072;11.682;2023-04-29T09:38:53;2.22;;;1.65;;
21472;SDS011;10898;48.072;11.682;2023-04-29T09:40:55;1.92;;;1.77;;
21472;SDS011;10898;48.072;11.682;2023-04-29T09:43:01;2.10;;;1.20;;
21472;SDS011;10898;48.072;11.682;2023-04-29T09:45:04;1.60;;;1.50;;
21472;SDS011;10898;48.072;11.682;2023-04-29T09:47:07;3.20;;;1.65;;
21472;SDS011;10898;48.072;11.682;2023-04-29T09:49:23;1.92;;;1.75;;
21472;SDS011;10898;48.072;11.682;2023-04-29T09:51:25;3.92;;;1.55;;
21472;SDS011;10898;48.072;11.682;2023-04-29T09:53:28;1.90;;;1.80;;
21472;SDS011;10898;48.072;11.682;2023-04-29T09:55:31;1.52;;;1.42;;
21472;SDS011;10898;48.072;11.682;2023-04-29T09:57:39;2.08;;;1.50;;
21472;SDS011;10898;48.072;11.682;2023-04-29T09:59:45;1.65;;;1.52;;
21472;SDS011;10898;48.072;11.682;2023-04-29T10:01:48;2.00;;;1.70;;
21472;SDS011;10898;48.072;11.682;2023-04-29T10:03:50;2.15;;;1.40;;
21472;SDS011;10898;48.072;11.682;2023-04-29T10:05:54;2.38;;;1.40;;
21472;SDS011;10898;48.072;11.682;2023-04-29T10:07:57;2.13;;;1.40;;
21472;SDS011;10898;48.072;11.682;2023-04-29T10:10:00;1.70;;;1.60;;
21472;SDS011;10898;48.072;11.682;2023-04-29T10:12:03;1.63;;;1.42;;
21472;SDS011;10898;48.072;11.682;2023-04-29T10:14:11;1.50;;;1.40;;
21472;SDS011;10898;48.072;11.682;2023-04-29T10:16:19;1.58;;;1.45;;
21472;SDS011;10898;48.072;11.682;2023-04-29T10:18:34;2.60;;;1.48;;
21472;SDS011;10898;48.072;11.682;2023-04-29T10:20:40;1.63;;;1.20;;
21472;SDS011;10898;48.072;11.682;2023-04-29T10:22:48;2.08;;;1.38;;
21472;SDS011;10898;48.072;11.682;2023-04-29T10:26:52;3.47;;;1.27;;
21472;SDS011;10898;48.072;11.682;2023-04-29T10:28:57;2.58;;;1.30;;
21472;SDS011;10898;48.072;11.682;2023-04-29T10:31:00;3.63;;;1.27;;
21472;SDS011;10898;48.072;11.682;2023-04-29T10:33:06;1.42;;;1.30;;
21472;SDS011;10898;48.072;11.682;2023-04-29T10:35:12;1.80;;;1.13;;
21472;SDS011;10898;48.072;11.682;2023-04-29T10:37:15;2.03;;;1.30;;
21472;SDS011;10898;48.072;11.682;2023-04-29T10:41:24;1.15;;;1.05;;
21472;SDS011;10898;48.072;11.682;2023-04-29T10:43:28;1.85;;;1.38;;
21472;SDS011;10898;48.072;11.682;2023-04-29T10:45:32;1.60;;;1.10;;
21472;SDS011;10898;48.072;11.682;2023-04-29T10:47:37;1.48;;;1.38;;
21472;SDS011;10898;48.072;11.682;2023-04-29T10:49:40;3.05;;;2.00;;
21472;SDS011;10898;48.072;11.682;2023-04-29T10:52:02;3.47;;;1.77;;
21472;SDS011;10898;48.072;11.682;2023-04-29T10:56:07;5.68;;;2.03;;
21472;SDS011;10898;48.072;11.682;2023-04-29T11:00:34;3.42;;;2.25;;
21472;SDS011;10898;48.072;11.682;2023-04-29T11:02:39;2.40;;;2.20;;
21472;SDS011;10898;48.072;11.682;2023-04-29T11:05:05;2.45;;;2.00;;
21472;SDS011;10898;48.072;11.682;2023-04-29T11:07:04;2.85;;;2.03;;
21472;SDS011;10898;48.072;11.682;2023-04-29T11:09:28;4.15;;;2.15;;
21472;SDS011;10898;48.072;11.682;2023-04-29T11:13:46;2.00;;;1.83;;
21472;SDS011;10898;48.072;11.682;2023-04-29T11:15:50;3.72;;;1.98;;
21472;SDS011;10898;48.072;11.682;2023-04-29T11:17:52;2.22;;;2.03;;
21472;SDS011;10898;48.072;11.682;2023-04-29T11:19:59;1.92;;;1.60;;
21472;SDS011;10898;48.072;11.682;2023-04-29T11:22:08;3.47;;;1.73;;
21472;SDS011;10898;48.072;11.682;2023-04-29T11:24:12;3.03;;;1.67;;
21472;SDS011;10898;48.072;11.682;2023-04-29T11:26:19;1.95;;;1.80;;
21472;SDS011;10898;48.072;11.682;2023-04-29T11:28:22;3.58;;;2.00;;
21472;SDS011;10898;48.072;11.682;2023-04-29T11:30:26;2.22;;;1.92;;
21472;SDS011;10898;48.072;11.682;2023-04-29T11:32:30;3.90;;;1.98;;
21472;SDS011;10898;48.072;11.682;2023-04-29T11:34:32;2.83;;;2.17;;
21472;SDS011;10898;48.072;11.682;2023-04-29T11:36:35;3.28;;;2.05;;
21472;SDS011;10898;48.072;11.682;2023-04-29T11:38:40;2.60;;;1.90;;
21472;SDS011;10898;48.072;11.682;2023-04-29T11:40:51;2.50;;;1.70;;
21472;SDS011;10898;48.072;11.682;2023-04-29T11:42:53;3.47;;;1.90;;
21472;SDS011;10898;48.072;11.682;2023-04-29T11:44:55;1.50;;;1.40;;
21472;SDS011;10898;48.072;11.682;2023-04-29T11:47:04;1.77;;;1.40;;
21472;SDS011;10898;48.072;11.682;2023-04-29T11:49:06;1.30;;;1.23;;
21472;SDS011;10898;48.072;11.682;2023-04-29T11:51:08;1.48;;;1.38;;
21472;SDS011;10898;48.072;11.682;2023-04-29T11:53:11;1.77;;;1.58;;
21472;SDS011;10898;48.072;11.682;2023-04-29T11:55:13;2.53;;;1.52;;
21472;SDS011;10898;48.072;11.682;2023-04-29T11:59:18;1.63;;;1.52;;
21472;SDS011;10898;48.072;11.682;2023-04-29T12:01:21;2.25;;;1.85;;
21472;SDS011;10898;48.072;11.682;2023-04-29T12:03:23;3.20;;;1.58;;
21472;SDS011;10898;48.072;11.682;2023-04-29T12:07:28;2.42;;;1.52;;
21472;SDS011;10898;48.072;11.682;2023-04-29T12:09:40;1.65;;;1.30;;
21472;SDS011;10898;48.072;11.682;2023-04-29T12:11:43;5.22;;;1.45;;
21472;SDS011;10898;48.072;11.682;2023-04-29T12:13:47;1.55;;;1.40;;
21472;SDS011;10898;48.072;11.682;2023-04-29T12:15:49;1.42;;;1.33;;
21472;SDS011;10898;48.072;11.682;2023-04-29T12:17:52;1.38;;;1.27;;
21472;SDS011;10898;48.072;11.682;2023-04-29T12:19:54;1.30;;;1.20;;
21472;SDS011;10898;48.072;11.682;2023-04-29T12:21:58;2.70;;;1.00;;
21472;SDS011;10898;48.072;11.682;2023-04-29T12:24:01;1.40;;;1.30;;
21472;SDS011;10898;48.072;11.682;2023-04-29T12:26:03;1.73;;;1.40;;
21472;SDS011;10898;48.072;11.682;2023-04-29T12:28:12;1.20;;;1.00;;
21472;SDS011;10898;48.072;11.682;2023-04-29T12:30:14;1.17;;;1.17;;
21472;SDS011;10898;48.072;11.682;2023-04-29T12:32:17;1.30;;;1.20;;
21472;SDS011;10898;48.072;11.682;2023-04-29T12:34:27;2.40;;;1.30;;
21472;SDS011;10898;48.072;11.682;2023-04-29T12:36:29;1.08;;;1.08;;
21472;SDS011;10898;48.072;11.682;2023-04-29T12:38:32;1.92;;;1.10;;
21472;SDS011;10898;48.072;11.682;2023-04-29T12:40:35;1.15;;;1.05;;
21472;SDS011;10898;48.072;11.682;2023-04-29T12:42:37;1.60;;;1.50;;
21472;SDS011;10898;48.072;11.682;2023-04-29T12:44:40;2.53;;;1.25;;
21472;SDS011;10898;48.072;11.682;2023-04-29T12:46:43;1.95;;;1.42;;
21472;SDS011;10898;48.072;11.682;2023-04-29T12:48:46;1.10;;;1.00;;
21472;SDS011;10898;48.072;11.682;2023-04-29T12:50:49;2.22;;;1.42;;
21472;SDS011;10898;48.072;11.682;2023-04-29T12:52:52;1.30;;;1.20;;